Ainsworth, Nebraska
Current Conditions -  °F | °C
As of 8:35 AM on Friday 24 Oct 2014 (Local Time) from KANW Reporting Station
Clear Clear  
Wind Chill: 47°   Ceiling: Unl
Heat Index: 47°   Visibility: 10mi
Dew Point: 37°   Wind: 3mph
Humidity: 67%   Direction: 280°W
Pressure: 29.94"   Gusts: NA
Location:  42.55°N, 99.86°W
Report Text: KANW 241335Z AUTO 28003KT 10SM CLR 08/03 A2994 RMK AO2 T00840026
Loading
Personal Weather Stations






























Interactive Weather Map
Tropical Storm Tracking
New forecast layout! Learn more

10-Day Weather Forecast

Advertisements
Track Severe Weather on mobile